Flight Track Log - Related Links

Times and Time Zones

All times are in EDT time to prevent confusion due to time zone crossing. See the SWA378 flight status page for this flight to view local times or setup timezone preferences in your user account.

Time Position Orientation Groundspeed Altitude Reporting Facility
EDT Latitude Longitude Course Direction KTS MPH feet Rate Location/Type
Mon 01:47:57 PM 33.9408 -118.3569 91° East 177 204 1,500  Level Los Angeles Center
Mon 01:49:00 PM 33.9397 -118.2775 91° East 253 291 3,900 2,880 Climbing Los Angeles Center
Mon 01:50:02 PM 33.9083 -118.1969 115° Southeast 263 303 7,500 3,065 Climbing Los Angeles Center
Mon 01:52:06 PM 33.8272 -117.9900 115° Southeast 338 389 13,400 2,774 Climbing Los Angeles Center
Mon 01:53:08 PM 33.7831 -117.8792 116° Southeast 363 418 16,100 1,935 Climbing Los Angeles Center
Mon 01:54:10 PM 33.7575 -117.7453 103° East 421 484 17,400 1,597 Climbing Los Angeles Center
Mon 01:55:12 PM 33.7414 -117.5947 97° East 453 521 19,400 1,984 Climbing Los Angeles Center
Mon 01:56:14 PM 33.7239 -117.4367 98° East 474 545 21,500 1,903 Climbing Los Angeles Center
Mon 01:58:18 PM 33.6817 -117.0658 98° East 519 597 25,300 1,733 Climbing Los Angeles Center
Mon 01:59:21 PM 33.6622 -116.8908 98° East 529 609 26,900 1,663 Climbing Los Angeles Center
Mon 02:01:00 PM 33.6196 -116.6401 98° East  Level FlightAware Approximate
Mon 02:02:27 PM 33.5969 -116.3353 98° East 538 619 32,200  Level Los Angeles Center
Mon 02:03:29 PM 33.5744 -116.1567 99° East 540 621 33,600 1,403 Climbing Los Angeles Center
Mon 02:04:31 PM 33.5528 -115.9808 98° East 535 616 35,100 1,097 Climbing Los Angeles Center
Mon 02:06:35 PM 33.5075 -115.6308 99° East 532 612 37,000 613 Climbing Los Angeles Center
Mon 02:07:37 PM 33.4869 -115.4544 98° East 537 618 37,000  Level Los Angeles Center
Mon 02:08:39 PM 33.4575 -115.2431 99° East 544 626 37,000  Level Los Angeles Center
Mon 02:10:00 PM 33.4308 -115.0464 99° East  Level FlightAware Approximate
Mon 02:10:44 PM 33.4136 -114.8911 99° East 540 621 37,000  Level Los Angeles Center
Mon 02:12:48 PM 33.3661 -114.5444 99° East 533 613 37,000  Level Los Angeles Center
Mon 02:14:00 PM 33.3389 -114.3636 100° East  Level FlightAware Approximate
Mon 02:14:52 PM 33.3094 -114.1647 100° East 533 613 37,000  Level Los Angeles Center
Mon 02:15:54 PM 33.2914 -113.9931 97° East 520 598 37,000  Level Los Angeles Center
Mon 02:16:56 PM 33.2692 -113.8333 99° East 525 604 37,000  Level Albuquerque Center
Mon 02:18:00 PM 33.2436 -113.6731 101° East  Level FlightAware Approximate
Mon 02:19:01 PM 33.2189 -113.4800 101° East 521 600 37,000  Level Los Angeles Center
Mon 02:20:03 PM 33.1900 -113.2889 100° East 530 610 37,000  Level Los Angeles Center
Mon 02:21:03 PM 33.1664 -113.1189 99° East 522 601 37,000  Level Albuquerque Center
Mon 02:22:05 PM 33.1403 -112.9472 100° East 525 604 37,000  Level Albuquerque Center
Mon 02:24:08 PM 33.0892 -112.6103 100° East 523 602 37,000  Level Albuquerque Center
Mon 02:25:10 PM 33.0592 -112.4125 100° East 521 600 37,000  Level Albuquerque Center
Mon 02:26:12 PM 33.0325 -112.2408 100° East 519 597 37,000  Level Albuquerque Center
Mon 02:28:00 PM 32.9747 -111.9685 100° East  Level FlightAware Approximate
Mon 02:29:16 PM 32.9539 -111.7414 100° East 516 594 37,000  Level Albuquerque Center
Mon 02:31:00 PM 32.9090 -111.4768 101° East  Level FlightAware Approximate
Mon 02:32:21 PM 32.8683 -111.2128 101° East 513 590 37,000  Level Albuquerque Center
Mon 02:33:23 PM 32.8422 -111.0483 101° East 510 587 37,000  Level Albuquerque Center
Mon 02:34:25 PM 32.8156 -110.8825 101° East 511 588 37,000  Level Albuquerque Center
Mon 02:35:26 PM 32.7867 -110.7189 102° East 510 587 37,000  Level Albuquerque Center
Mon 02:36:28 PM 32.7592 -110.5539 101° East 510 587 37,000  Level Albuquerque Center
Mon 02:38:00 PM 32.7138 -110.3219 103° East  Level FlightAware Approximate
Mon 02:38:32 PM 32.6981 -110.1944 103° East 512 589 37,000  Level Albuquerque Center
Mon 02:40:00 PM 32.6479 -109.9742 102° East  Level FlightAware Approximate
Mon 02:40:35 PM 32.6381 -109.8683 102° East 510 587 37,000  Level Albuquerque Center
Mon 02:41:37 PM 32.6114 -109.7053 101° East 510 587 37,000  Level Albuquerque Center
Mon 02:42:38 PM 32.5800 -109.5411 103° East 516 594 37,000  Level Albuquerque Center
Mon 02:44:00 PM 32.5397 -109.3347 103° East  Level FlightAware Approximate
Mon 02:45:44 PM 32.4872 -109.0231 103° East 511 588 37,000  Level Albuquerque Center
Mon 02:46:45 PM 32.4567 -108.8633 103° East 509 586 37,000  Level Albuquerque Center
Mon 02:47:47 PM 32.4219 -108.6697 102° East 507 583 37,000  Level Albuquerque Center
Mon 02:49:00 PM 32.3814 -108.4876 105° East  Level FlightAware Approximate
Mon 02:50:52 PM 32.3303 -108.1839 103° East 504 580 37,000  Level Albuquerque Center
Mon 02:51:00 PM 32.3319 -108.2791 103° East  Level FlightAware Approximate
Mon 02:51:54 PM 32.3003 -108.0225 102° East 505 581 37,000  Level Albuquerque Center
Mon 02:52:56 PM 32.2694 -107.8625 103° East 502 578 37,000  Level Albuquerque Center
Mon 02:54:00 PM 32.2383 -107.7018 103° East  Level FlightAware Approximate
Mon 02:56:00 PM 32.1834 -107.4319 103° East  Level FlightAware Approximate
Mon 02:56:01 PM 32.1719 -107.3556 103° East 497 572 37,000  Level Albuquerque Center
Mon 02:58:05 PM 32.1100 -107.0406 103° East 500 575 37,000  Level Albuquerque Center
Mon 03:00:00 PM 32.1368 -106.7459 84° East  Level FlightAware Approximate
Mon 03:01:00 PM 32.0288 -106.6502 103° East  Level FlightAware Approximate
Mon 03:02:12 PM 32.1278 -106.3594 85° East 503 579 37,000  Level Albuquerque Center
Mon 03:03:14 PM 32.1411 -106.1953 84° East 504 580 37,000  Level Albuquerque Center
Mon 03:04:15 PM 32.1547 -106.0314 84° East 504 580 37,000  Level Albuquerque Center
Mon 03:05:17 PM 32.1681 -105.8506 85° East 507 583 37,000  Level Albuquerque Center
Mon 03:06:19 PM 32.1811 -105.6853 85° East 506 582 37,000  Level Albuquerque Center
Mon 03:07:00 PM 32.2264 -105.6681 85° East  Level FlightAware Approximate
Mon 03:07:21 PM 32.1961 -105.5186 84° East 509 586 37,000  Level Albuquerque Center
Mon 03:09:25 PM 32.2206 -105.1844 85° East 510 587 37,000  Level Albuquerque Center
Mon 03:11:00 PM 32.2458 -104.9412 83° East  Level FlightAware Approximate
Mon 03:11:28 PM 32.2486 -104.8156 83° East 511 588 37,000  Level Albuquerque Center
Mon 03:12:30 PM 32.2603 -104.6469 85° East 514 592 37,000  Level Albuquerque Center
Mon 03:14:04 PM 32.2800 -104.3958 85° East 499 574 37,000  Level Fort Worth Center
Mon 03:14:34 PM 32.2825 -104.3136 88° East 507 583 37,000  Level Albuquerque Center
Mon 03:16:38 PM 32.3039 -103.9797 86° East 498 573 37,000  Level Albuquerque Center
Mon 03:19:04 PM 32.3328 -103.5889 85° East 493 567 37,000  Level Fort Worth Center
Mon 03:19:43 PM 32.3386 -103.4697 87° East 488 562 37,000  Level Albuquerque Center
Mon 03:20:45 PM 32.3481 -103.3114 86° East 485 558 37,000  Level Albuquerque Center
Mon 03:21:47 PM 32.3575 -103.1539 86° East 484 557 37,000  Level Albuquerque Center
Mon 03:22:50 PM 32.3667 -102.9975 86° East 480 552 37,000  Level Albuquerque Center
Mon 03:24:53 PM 32.3850 -102.6578 86° East 478 550 37,000  Level Albuquerque Center
Mon 03:25:04 PM 32.3847 -102.6258 85° East 475 547 37,000  Level Fort Worth Center
Mon 03:26:00 PM 32.3984 -102.4867 85° East  Level FlightAware Approximate
Mon 03:27:04 PM 32.3997 -102.3044 87° East 481 554 37,000  Level Fort Worth Center
Mon 03:28:04 PM 32.4103 -102.1428 86° East 481 554 37,000  Level Fort Worth Center
Mon 03:31:00 PM 32.4771 -101.3835 86° East  Level FlightAware Approximate
Mon 03:34:04 PM 32.4569 -101.1900 88° East 493 567 37,000  Level Fort Worth Center
Mon 03:35:04 PM 32.4619 -101.0278 88° East 488 562 37,000  Level Fort Worth Center
Mon 03:36:04 PM 32.4683 -100.8681 87° East 488 562 37,000  Level Fort Worth Center
Mon 03:38:00 PM 32.5104 -100.3060 88° East  Level FlightAware Approximate
Mon 03:38:04 PM 32.4811 -100.5483 87° East 483 556 37,000  Level Fort Worth Center
Mon 03:39:00 PM 32.5140 -100.1520 88° East  Level FlightAware Approximate
Mon 03:39:04 PM 32.4869 -100.3911 87° East 478 550 37,000  Level Fort Worth Center
Mon 03:40:04 PM 32.4906 -100.2311 88° East 478 550 37,000  Level Fort Worth Center
Mon 03:41:04 PM 32.4961 -100.0711 88° East 478 550 37,000  Level Fort Worth Center
Mon 03:43:00 PM 32.5245 -99.7739 88° East  Level FlightAware Approximate
Mon 03:44:04 PM 32.5119 -99.5839 88° East 488 562 37,000  Level Fort Worth Center
Mon 03:45:04 PM 32.5186 -99.4214 87° East 488 562 37,000  Level Fort Worth Center
Mon 03:47:04 PM 32.5278 -99.0989 88° East 493 567 37,000  Level Fort Worth Center
Mon 03:48:04 PM 32.5317 -98.9386 88° East 493 567 37,000  Level Fort Worth Center
Mon 03:49:04 PM 32.5358 -98.7786 88° East 493 567 37,000  Level Fort Worth Center
Mon 03:51:04 PM 32.5431 -98.4558 88° East 493 567 37,000  Level Fort Worth Center
Mon 03:52:04 PM 32.5464 -98.2783 89° East 488 562 37,000  Level Fort Worth Center
Mon 03:53:04 PM 32.5494 -98.1331 89° East 494 568 37,000  Level Fort Worth Center
Mon 03:54:04 PM 32.5544 -97.9531 88° East 494 568 37,000  Level Fort Worth Center
Mon 03:55:04 PM 32.5550 -97.7881 90° East 494 568 37,000  Level Fort Worth Center
Mon 03:56:03 PM 32.5575 -97.6278 89° East 494 568 37,000  Level Fort Worth Center
Mon 03:58:04 PM 32.5619 -97.2975 89° East 493 567 37,000  Level Fort Worth Center
Mon 03:59:04 PM 32.5639 -97.1325 89° East 500 575 37,000  Level Fort Worth Center
Mon 04:00:04 PM 32.5675 -96.9672 88° East 494 568 37,000  Level Fort Worth Center
Mon 04:02:04 PM 32.5681 -96.6369 90° East 494 568 37,000  Level Fort Worth Center
Mon 04:04:04 PM 32.5697 -96.3189 90° East 494 568 37,000  Level Fort Worth Center
Mon 04:05:03 PM 32.5703 -96.1389 90° East 494 568 37,000  Level Fort Worth Center
Mon 04:06:04 PM 32.5706 -95.9886 90° East 494 568 37,000  Level Fort Worth Center
Mon 04:07:04 PM 32.5706 -95.8111 90° East 494 568 37,000  Level Fort Worth Center
Mon 04:08:04 PM 32.5728 -95.6606 89° East 494 568 37,000  Level Fort Worth Center
Mon 04:10:00 PM 32.5770 -95.3625 89° East  Level FlightAware Approximate
Mon 04:11:04 PM 32.5667 -95.1431 89° East 499 574 37,000  Level Fort Worth Center
Mon 04:12:04 PM 32.5656 -94.9756 90° East 493 567 37,000  Level Fort Worth Center
Mon 04:13:04 PM 32.5644 -94.8128 90° East 493 567 37,000  Level Fort Worth Center
Mon 04:14:04 PM 32.5631 -94.6453 91° East 493 567 37,000  Level Fort Worth Center
Mon 04:16:04 PM 32.5614 -94.3150 90° East 498 573 37,000  Level Fort Worth Center
Mon 04:18:00 PM 32.5567 -94.0170 91° East  Level FlightAware Approximate
Mon 04:19:04 PM 32.5544 -93.8150 91° East 498 573 37,000  Level Fort Worth Center
Mon 04:20:04 PM 32.5539 -93.6500 90° East 498 573 37,000  Level Fort Worth Center
Mon 04:22:04 PM 32.5475 -93.3125 91° East 503 579 37,000  Level Fort Worth Center
Mon 04:24:00 PM 32.5369 -93.0135 92° East  Level FlightAware Approximate
Mon 04:25:04 PM 32.5406 -92.8153 92° East 498 573 37,000  Level Fort Worth Center
Mon 04:26:04 PM 32.5367 -92.6528 92° East 498 573 37,000  Level Fort Worth Center
Mon 04:28:20 PM 32.5253 -92.3014 92° East 490 564 37,000  Level Memphis Center
Mon 04:30:20 PM 32.5136 -91.9561 92° East 502 578 37,000  Level Memphis Center
Mon 04:32:00 PM 32.5051 -91.6984 92° East  Level FlightAware Approximate
Mon 04:32:20 PM 32.4986 -91.6233 92° East 497 572 37,000  Level Memphis Center
Mon 04:33:20 PM 32.4961 -91.4533 91° East 497 572 37,000  Level Memphis Center
Mon 04:34:20 PM 32.4889 -91.2883 93° East 497 572 37,000  Level Memphis Center
Mon 04:35:20 PM 32.4839 -91.1208 92° East 497 572 37,000  Level Memphis Center
Mon 04:37:00 PM 32.4730 -90.8633 93° East  Level FlightAware Approximate
Mon 04:37:20 PM 32.4708 -90.7858 93° East 502 578 37,000  Level Memphis Center
Mon 04:38:20 PM 32.4650 -90.6331 93° East 502 578 37,000  Level Memphis Center
Mon 04:39:20 PM 32.4589 -90.4681 92° East 502 578 37,000  Level Memphis Center
Mon 04:41:00 PM 32.4445 -90.2109 94° East  Level FlightAware Approximate
Mon 04:43:20 PM 32.4306 -89.7961 93° East 507 583 37,000  Level Memphis Center
Mon 04:45:00 PM 32.4919 -89.5488 74° East  Level Estimated
Mon 04:46:20 PM 32.4064 -89.2992 74° East 507 583 37,000  Level Memphis Center
Mon 04:47:20 PM 32.3967 -89.1344 94° East 502 578 37,000  Level Memphis Center
Mon 04:48:00 PM 32.3860 -89.1308 93° East  Level FlightAware Approximate
Mon 04:48:20 PM 32.3883 -88.9500 93° East 502 578 37,000  Level Memphis Center
Mon 04:50:10 PM 32.3950 -88.6558 88° East 503 579 37,000  Level Atlanta Center
Mon 04:52:10 PM 32.4361 -88.3258 82° East 498 573 37,000  Level Atlanta Center
Mon 04:53:10 PM 32.4564 -88.1594 82° East 498 573 37,000  Level Atlanta Center
Mon 04:54:10 PM 32.4867 -87.9983 77° East 498 573 37,000  Level Atlanta Center
Mon 04:55:10 PM 32.5211 -87.8325 76° East 505 581 37,000 -500 Level Atlanta Center
Mon 04:56:10 PM 32.5572 -87.6714 75° East 505 581 36,000 -950 Descending Atlanta Center
Mon 04:58:00 PM 32.5527 -87.3876 91° East  Level FlightAware Approximate
Mon 04:59:10 PM 32.6558 -87.1967 91° East 500 575 33,200  Level Atlanta Center
Mon 05:00:10 PM 32.6892 -87.0325 76° East 495 570 32,100 -1,950 Descending Atlanta Center
Mon 05:01:10 PM 32.7203 -86.8708 77° East 500 575 29,300 -2,800 Descending Atlanta Center
Mon 05:02:10 PM 32.7550 -86.7089 76° East 500 575 26,500 -1,433 Descending Atlanta Center
Mon 05:04:10 PM 32.8136 -86.4017 77° East 487 560 25,000 -500 Descending Atlanta Center
Mon 05:06:00 PM 32.8658 -86.1159 77° East  Level FlightAware Approximate
Mon 05:07:10 PM 32.7794 -85.9633 77° East 437 503 24,000  Level Atlanta Center
Mon 05:09:00 PM 32.8705 -85.6917 68° East  Level FlightAware Approximate
Mon 05:12:10 PM 33.0069 -85.3219 49° Northeast 416 479 20,300  Level Atlanta Center
Mon 05:14:06 PM 33.1333 -85.1000 56° Northeast 398 458 15,700 -1,754 Descending Atlanta TRACON
Mon 05:16:00 PM 33.3714 -84.7548 48° Northeast  Level FlightAware Approximate
Mon 05:16:06 PM 33.2667 -84.9167 49° Northeast 381 438 13,400  Level Atlanta TRACON
Mon 05:17:00 PM 33.4600 -84.6343 49° Northeast  Level FlightAware Approximate
Mon 05:17:06 PM 33.3500 -84.8167 45° Northeast 376 433 12,400  Level Atlanta TRACON
Mon 05:18:10 PM 33.4061 -84.7356 50° Northeast 373 429 12,000 -194 Descending Atlanta Center
Mon 05:19:10 PM 33.4714 -84.6489 48° Northeast 356 410 12,000 -51 Level Atlanta Center
Mon 05:20:07 PM 33.5333 -84.5667 48° Northeast 290 334 11,900 -1,649 Descending Atlanta TRACON
Mon 05:22:01 PM 33.5500 -84.3833 84° East 278 320 7,300 -2,567 Descending Atlanta TRACON
Mon 05:23:07 PM 33.5500 -84.2833 90° East 258 297 4,200 -1,355 Descending Atlanta TRACON
Mon 05:25:07 PM 33.6167 -84.2167 40° Northeast 194 223 3,100 -385 Descending Atlanta TRACON
Mon 05:27:01 PM 33.6333 -84.3167 281° West 160 184 2,700 -467 Descending Atlanta TRACON
Mon 05:28:07 PM 33.6333 -84.3833 270° West 146 168 1,700 -909 Descending Atlanta TRACON
Mon 05:30:00 PM 33.6333 -84.4167 301° West  Level FlightAware Approximate
Mon 05:37:00 PM 33.6367 -84.4279 301° West  Level Estimated
Mon 05:38:00 PM 33.6367 -84.4279 301° West  Level Estimated

Login

Don't have an account? Register now (free) for customized features, flight alerts, and more!